sensor_id;sensor_type;location;lat;lon;timestamp;pressure;altitude;pressure_sealevel;temperature;humidity
56241;BME280;42155;53.096;23.226;2023-10-19T00:01:17;99557.16;;;4.56;78.00
56241;BME280;42155;53.096;23.226;2023-10-19T00:03:18;99555.94;;;4.62;77.88
56241;BME280;42155;53.096;23.226;2023-10-19T00:05:18;99562.50;;;4.69;77.79
56241;BME280;42155;53.096;23.226;2023-10-19T00:07:18;99556.41;;;4.69;78.56
56241;BME280;42155;53.096;23.226;2023-10-19T00:09:19;99553.22;;;4.64;78.13
56241;BME280;42155;53.096;23.226;2023-10-19T00:11:19;99562.50;;;4.69;78.85
56241;BME280;42155;53.096;23.226;2023-10-19T00:13:19;99561.38;;;4.73;78.69
56241;BME280;42155;53.096;23.226;2023-10-19T00:15:20;99566.53;;;4.75;78.79
56241;BME280;42155;53.096;23.226;2023-10-19T00:17:20;99562.88;;;4.77;78.65
56241;BME280;42155;53.096;23.226;2023-10-19T00:19:20;99559.28;;;4.78;78.66
56241;BME280;42155;53.096;23.226;2023-10-19T00:21:21;99506.22;;;4.45;78.57
56241;BME280;42155;53.096;23.226;2023-10-19T00:23:23;99557.69;;;4.76;78.58
56241;BME280;42155;53.096;23.226;2023-10-19T00:25:24;99572.34;;;4.80;78.55
56241;BME280;42155;53.096;23.226;2023-10-19T00:27:24;99559.47;;;4.75;78.34
56241;BME280;42155;53.096;23.226;2023-10-19T00:29:24;99572.16;;;4.83;78.55
56241;BME280;42155;53.096;23.226;2023-10-19T00:31:26;99572.88;;;4.85;78.60
56241;BME280;42155;53.096;23.226;2023-10-19T00:33:26;99536.03;;;4.72;78.75
56241;BME280;42155;53.096;23.226;2023-10-19T00:35:27;99560.22;;;4.92;78.39
56241;BME280;42155;53.096;23.226;2023-10-19T00:37:27;99552.22;;;4.93;79.20
56241;BME280;42155;53.096;23.226;2023-10-19T00:39:27;99562.38;;;4.99;78.56
56241;BME280;42155;53.096;23.226;2023-10-19T00:41:27;99557.84;;;5.01;78.73
56241;BME280;42155;53.096;23.226;2023-10-19T00:43:29;99558.28;;;5.08;79.13
56241;BME280;42155;53.096;23.226;2023-10-19T00:45:29;99557.25;;;5.10;79.25
56241;BME280;42155;53.096;23.226;2023-10-19T00:47:30;99550.31;;;5.09;79.33
56241;BME280;42155;53.096;23.226;2023-10-19T00:49:30;99552.53;;;5.16;79.29
56241;BME280;42155;53.096;23.226;2023-10-19T00:51:52;99542.78;;;5.18;79.02
56241;BME280;42155;53.096;23.226;2023-10-19T00:53:57;99545.59;;;5.15;79.04
56241;BME280;42155;53.096;23.226;2023-10-19T00:55:58;99537.69;;;5.15;79.18
56241;BME280;42155;53.096;23.226;2023-10-19T00:57:58;99541.16;;;5.15;79.35
56241;BME280;42155;53.096;23.226;2023-10-19T01:00:01;99545.28;;;5.19;79.87
56241;BME280;42155;53.096;23.226;2023-10-19T01:02:02;99540.88;;;5.20;79.61
56241;BME280;42155;53.096;23.226;2023-10-19T01:04:02;99542.78;;;5.18;79.17
56241;BME280;42155;53.096;23.226;2023-10-19T01:06:04;99537.69;;;5.15;79.77
56241;BME280;42155;53.096;23.226;2023-10-19T01:08:05;99537.59;;;5.16;78.88
56241;BME280;42155;53.096;23.226;2023-10-19T01:10:06;99533.16;;;5.17;79.48
56241;BME280;42155;53.096;23.226;2023-10-19T01:12:07;99540.88;;;5.20;79.21
56241;BME280;42155;53.096;23.226;2023-10-19T01:14:22;99494.53;;;5.04;79.32
56241;BME280;42155;53.096;23.226;2023-10-19T01:16:22;99528.25;;;5.25;79.20
56241;BME280;42155;53.096;23.226;2023-10-19T01:18:23;99529.75;;;5.29;79.05
56241;BME280;42155;53.096;23.226;2023-10-19T01:20:24;99525.03;;;5.34;79.05
56241;BME280;42155;53.096;23.226;2023-10-19T01:22:24;99531.00;;;5.36;79.07
56241;BME280;42155;53.096;23.226;2023-10-19T01:24:25;99526.63;;;5.36;79.33
56241;BME280;42155;53.096;23.226;2023-10-19T01:26:25;99525.56;;;5.39;79.38
56241;BME280;42155;53.096;23.226;2023-10-19T01:28:27;99515.22;;;5.36;79.73
56241;BME280;42155;53.096;23.226;2023-10-19T01:30:28;99491.25;;;5.28;79.83
56241;BME280;42155;53.096;23.226;2023-10-19T01:32:29;99522.31;;;5.48;80.23
56241;BME280;42155;53.096;23.226;2023-10-19T01:34:29;99515.91;;;5.52;79.50
56241;BME280;42155;53.096;23.226;2023-10-19T01:36:30;99511.28;;;5.56;80.45
56241;BME280;42155;53.096;23.226;2023-10-19T01:38:30;99505.81;;;5.59;80.42
56241;BME280;42155;53.096;23.226;2023-10-19T01:40:31;99466.53;;;5.43;80.24
56241;BME280;42155;53.096;23.226;2023-10-19T01:42:31;99500.34;;;5.62;80.69
56241;BME280;42155;53.096;23.226;2023-10-19T01:44:31;99487.28;;;5.60;80.73
56241;BME280;42155;53.096;23.226;2023-10-19T01:46:33;99494.88;;;5.65;80.28
56241;BME280;42155;53.096;23.226;2023-10-19T01:48:34;99487.94;;;5.64;80.81
56241;BME280;42155;53.096;23.226;2023-10-19T01:50:37;99488.78;;;5.65;80.55
56241;BME280;42155;53.096;23.226;2023-10-19T01:52:37;99496.38;;;5.69;81.11
56241;BME280;42155;53.096;23.226;2023-10-19T01:54:37;99496.25;;;5.71;81.21
56241;BME280;42155;53.096;23.226;2023-10-19T01:56:38;99490.88;;;5.72;81.08
56241;BME280;42155;53.096;23.226;2023-10-19T01:58:39;99498.38;;;5.78;81.18
56241;BME280;42155;53.096;23.226;2023-10-19T02:00:39;99448.81;;;5.45;80.73
56241;BME280;42155;53.096;23.226;2023-10-19T02:02:40;99499.94;;;5.81;80.84
56241;BME280;42155;53.096;23.226;2023-10-19T02:04:40;99477.63;;;5.74;81.00
56241;BME280;42155;53.096;23.226;2023-10-19T02:06:40;99494.34;;;5.85;80.95
56241;BME280;42155;53.096;23.226;2023-10-19T02:08:41;99485.00;;;5.94;81.45
56241;BME280;42155;53.096;23.226;2023-10-19T02:10:46;99466.66;;;5.80;81.09
56241;BME280;42155;53.096;23.226;2023-10-19T02:12:46;99484.81;;;5.97;81.52
56241;BME280;42155;53.096;23.226;2023-10-19T02:14:47;99491.56;;;6.01;81.65
56241;BME280;42155;53.096;23.226;2023-10-19T02:16:54;99487.84;;;6.04;80.93
56241;BME280;42155;53.096;23.226;2023-10-19T02:18:55;99483.34;;;6.06;81.70
56241;BME280;42155;53.096;23.226;2023-10-19T02:20:56;99470.91;;;5.95;81.35
56241;BME280;42155;53.096;23.226;2023-10-19T02:22:56;99485.09;;;6.05;81.75
56241;BME280;42155;53.096;23.226;2023-10-19T02:24:57;99476.16;;;6.08;81.91
56241;BME280;42155;53.096;23.226;2023-10-19T02:26:57;99481.09;;;6.12;82.10
56241;BME280;42155;53.096;23.226;2023-10-19T02:28:57;99490.69;;;6.13;81.43
56241;BME280;42155;53.096;23.226;2023-10-19T02:30:58;99489.22;;;6.09;81.52
56241;BME280;42155;53.096;23.226;2023-10-19T02:32:59;99476.38;;;6.05;82.07
56241;BME280;42155;53.096;23.226;2023-10-19T02:35:00;99486.28;;;6.01;82.40
56241;BME280;42155;53.096;23.226;2023-10-19T02:37:00;99479.31;;;6.00;82.22
56241;BME280;42155;53.096;23.226;2023-10-19T02:39:03;99483.53;;;6.03;82.41
56241;BME280;42155;53.096;23.226;2023-10-19T02:41:03;99494.16;;;6.14;82.30
56241;BME280;42155;53.096;23.226;2023-10-19T02:43:04;99469.09;;;5.83;81.83
56241;BME280;42155;53.096;23.226;2023-10-19T02:45:04;99498.78;;;6.23;82.13
56241;BME280;42155;53.096;23.226;2023-10-19T02:47:05;99468.78;;;6.13;82.52
56241;BME280;42155;53.096;23.226;2023-10-19T02:49:07;99493.44;;;6.25;82.30
56241;BME280;42155;53.096;23.226;2023-10-19T02:51:07;99490.69;;;6.26;82.13
56241;BME280;42155;53.096;23.226;2023-10-19T02:53:08;99486.88;;;6.30;82.00
56241;BME280;42155;53.096;23.226;2023-10-19T02:55:08;99462.47;;;6.16;82.18
56241;BME280;42155;53.096;23.226;2023-10-19T02:57:08;99439.16;;;6.09;82.55
56241;BME280;42155;53.096;23.226;2023-10-19T02:59:09;99483.94;;;6.35;82.21
56241;BME280;42155;53.096;23.226;2023-10-19T03:01:13;99480.34;;;6.36;82.40
56241;BME280;42155;53.096;23.226;2023-10-19T03:03:14;99484.66;;;6.37;82.13
56241;BME280;42155;53.096;23.226;2023-10-19T03:05:14;99475.91;;;6.36;82.10
56241;BME280;42155;53.096;23.226;2023-10-19T03:07:14;99466.66;;;6.31;82.45
56241;BME280;42155;53.096;23.226;2023-10-19T03:09:15;99479.81;;;6.31;82.75
56241;BME280;42155;53.096;23.226;2023-10-19T03:11:15;99479.31;;;6.26;82.74
56241;BME280;42155;53.096;23.226;2023-10-19T03:13:15;99487.09;;;6.27;83.03
56241;BME280;42155;53.096;23.226;2023-10-19T03:15:17;99479.94;;;6.29;83.15
56241;BME280;42155;53.096;23.226;2023-10-19T03:17:17;99479.81;;;6.31;83.23
56241;BME280;42155;53.096;23.226;2023-10-19T03:19:17;99477.06;;;6.32;82.77
56241;BME280;42155;53.096;23.226;2023-10-19T03:21:18;99472.34;;;6.25;82.71
56241;BME280;42155;53.096;23.226;2023-10-19T03:23:18;99473.59;;;6.32;83.23
56241;BME280;42155;53.096;23.226;2023-10-19T03:25:18;99468.00;;;6.24;82.55
56241;BME280;42155;53.096;23.226;2023-10-19T03:27:19;99465.38;;;6.24;83.12
56241;BME280;42155;53.096;23.226;2023-10-19T03:29:19;99464.97;;;6.17;83.14
56241;BME280;42155;53.096;23.226;2023-10-19T03:31:20;99419.19;;;5.94;83.19
56241;BME280;42155;53.096;23.226;2023-10-19T03:33:20;99460.22;;;6.22;83.50
56241;BME280;42155;53.096;23.226;2023-10-19T03:35:20;99454.13;;;6.22;82.79
56241;BME280;42155;53.096;23.226;2023-10-19T03:37:24;99464.22;;;6.28;83.39
56241;BME280;42155;53.096;23.226;2023-10-19T03:39:24;99466.84;;;6.28;82.90
56241;BME280;42155;53.096;23.226;2023-10-19T03:41:25;99471.28;;;6.27;82.74
56241;BME280;42155;53.096;23.226;2023-10-19T03:43:25;99472.97;;;6.28;83.33
56241;BME280;42155;53.096;23.226;2023-10-19T03:45:25;99470.22;;;6.30;83.11
56241;BME280;42155;53.096;23.226;2023-10-19T03:47:26;99454.84;;;6.24;82.54
56241;BME280;42155;53.096;23.226;2023-10-19T03:49:26;99454.00;;;6.23;83.28
56241;BME280;42155;53.096;23.226;2023-10-19T03:51:26;99450.97;;;6.17;83.39
56241;BME280;42155;53.096;23.226;2023-10-19T03:53:27;99458.25;;;6.13;82.86
56241;BME280;42155;53.096;23.226;2023-10-19T03:55:27;99437.16;;;6.00;83.21
56241;BME280;42155;53.096;23.226;2023-10-19T03:57:27;99447.56;;;6.15;83.18
56241;BME280;42155;53.096;23.226;2023-10-19T03:59:27;99457.91;;;6.18;83.16
56241;BME280;42155;53.096;23.226;2023-10-19T04:01:28;99455.06;;;6.21;83.55
56241;BME280;42155;53.096;23.226;2023-10-19T04:03:28;99440.94;;;6.22;83.04
56241;BME280;42155;53.096;23.226;2023-10-19T04:05:28;99433.88;;;6.09;83.06
56241;BME280;42155;53.096;23.226;2023-10-19T04:07:29;99431.25;;;6.09;83.74
56241;BME280;42155;53.096;23.226;2023-10-19T04:09:29;99386.38;;;5.85;83.56
56241;BME280;42155;53.096;23.226;2023-10-19T04:11:29;99435.78;;;6.20;83.04
56241;BME280;42155;53.096;23.226;2023-10-19T04:13:30;99436.13;;;6.16;82.85
56241;BME280;42155;53.096;23.226;2023-10-19T04:15:30;99442.44;;;6.13;83.09
56241;BME280;42155;53.096;23.226;2023-10-19T04:17:30;99442.03;;;6.06;83.52
56241;BME280;42155;53.096;23.226;2023-10-19T04:19:31;99426.81;;;6.10;83.74
56241;BME280;42155;53.096;23.226;2023-10-19T04:21:31;99427.06;;;6.07;83.67
56241;BME280;42155;53.096;23.226;2023-10-19T04:23:32;99412.53;;;6.01;84.05
56241;BME280;42155;53.096;23.226;2023-10-19T04:25:32;99418.53;;;6.03;83.87
56241;BME280;42155;53.096;23.226;2023-10-19T04:27:32;99431.34;;;6.21;83.36
56241;BME280;42155;53.096;23.226;2023-10-19T04:29:33;99433.66;;;6.25;83.01
56241;BME280;42155;53.096;23.226;2023-10-19T04:31:33;99434.31;;;6.29;83.37
56241;BME280;42155;53.096;23.226;2023-10-19T04:33:33;99426.81;;;6.23;83.11
56241;BME280;42155;53.096;23.226;2023-10-19T04:35:34;99423.47;;;6.21;83.18
56241;BME280;42155;53.096;23.226;2023-10-19T04:37:35;99432.72;;;6.26;83.05
56241;BME280;42155;53.096;23.226;2023-10-19T04:39:36;99426.81;;;6.23;83.29
56241;BME280;42155;53.096;23.226;2023-10-19T04:41:36;99436.19;;;6.27;83.57
56241;BME280;42155;53.096;23.226;2023-10-19T04:43:37;99439.97;;;6.23;83.09
56241;BME280;42155;53.096;23.226;2023-10-19T04:45:39;99421.78;;;6.20;83.65
56241;BME280;42155;53.096;23.226;2023-10-19T04:47:40;99426.09;;;6.21;83.61
56241;BME280;42155;53.096;23.226;2023-10-19T04:49:40;99417.75;;;6.27;83.51
56241;BME280;42155;53.096;23.226;2023-10-19T04:51:41;99409.53;;;6.19;83.47
56241;BME280;42155;53.096;23.226;2023-10-19T04:53:41;99410.78;;;6.26;83.56
56241;BME280;42155;53.096;23.226;2023-10-19T04:55:41;99395.63;;;6.17;83.31
56241;BME280;42155;53.096;23.226;2023-10-19T04:57:41;99416.28;;;6.23;83.30
56241;BME280;42155;53.096;23.226;2023-10-19T04:59:42;99406.91;;;6.19;83.60
56241;BME280;42155;53.096;23.226;2023-10-19T05:01:42;99416.28;;;6.23;83.43
56241;BME280;42155;53.096;23.226;2023-10-19T05:03:43;99412.78;;;6.22;83.65
56241;BME280;42155;53.096;23.226;2023-10-19T05:05:43;99404.19;;;6.20;83.61
56241;BME280;42155;53.096;23.226;2023-10-19T05:07:44;99401.31;;;6.23;83.03
56241;BME280;42155;53.096;23.226;2023-10-19T05:09:45;99412.03;;;6.33;82.85
56241;BME280;42155;53.096;23.226;2023-10-19T05:11:45;99396.28;;;6.20;82.87
56241;BME280;42155;53.096;23.226;2023-10-19T05:13:45;99413.59;;;6.35;83.10
56241;BME280;42155;53.096;23.226;2023-10-19T05:15:46;99405.69;;;6.35;82.93
56241;BME280;42155;53.096;23.226;2023-10-19T05:17:46;99420.47;;;6.38;82.79
56241;BME280;42155;53.096;23.226;2023-10-19T05:19:47;99419.84;;;6.34;82.50
56241;BME280;42155;53.096;23.226;2023-10-19T05:21:47;99422.56;;;6.33;82.64
56241;BME280;42155;53.096;23.226;2023-10-19T05:23:47;99417.91;;;6.36;83.09
56241;BME280;42155;53.096;23.226;2023-10-19T05:25:48;99427.41;;;6.39;82.55
56241;BME280;42155;53.096;23.226;2023-10-19T05:27:48;99426.34;;;6.42;82.65
56241;BME280;42155;53.096;23.226;2023-10-19T05:29:49;99426.25;;;6.43;83.04
56241;BME280;42155;53.096;23.226;2023-10-19T05:31:53;99425.16;;;6.46;82.39
56241;BME280;42155;53.096;23.226;2023-10-19T05:33:54;99429.47;;;6.47;82.70
56241;BME280;42155;53.096;23.226;2023-10-19T05:35:54;99426.97;;;6.45;82.87
56241;BME280;42155;53.096;23.226;2023-10-19T05:37:58;99432.44;;;6.42;82.54
56241;BME280;42155;53.096;23.226;2023-10-19T05:39:58;99431.50;;;6.43;82.95
56241;BME280;42155;53.096;23.226;2023-10-19T05:41:59;99430.56;;;6.44;82.70
56241;BME280;42155;53.096;23.226;2023-10-19T05:43:59;99426.25;;;6.43;82.18
56241;BME280;42155;53.096;23.226;2023-10-19T05:46:00;99433.06;;;6.46;82.34
56241;BME280;42155;53.096;23.226;2023-10-19T05:48:01;99427.72;;;6.47;82.53
56241;BME280;42155;53.096;23.226;2023-10-19T05:50:01;99433.91;;;6.46;82.69
56241;BME280;42155;53.096;23.226;2023-10-19T05:52:01;99379.09;;;6.15;82.96
56241;BME280;42155;53.096;23.226;2023-10-19T05:54:02;99429.72;;;6.44;82.90
56241;BME280;42155;53.096;23.226;2023-10-19T05:56:02;99428.63;;;6.46;82.48
56241;BME280;42155;53.096;23.226;2023-10-19T05:58:03;99430.44;;;6.46;82.35
56241;BME280;42155;53.096;23.226;2023-10-19T06:00:04;99428.44;;;6.49;82.17
56241;BME280;42155;53.096;23.226;2023-10-19T06:02:04;99432.75;;;6.50;82.19
56241;BME280;42155;53.096;23.226;2023-10-19T06:04:05;99435.00;;;6.44;82.71
56241;BME280;42155;53.096;23.226;2023-10-19T06:06:05;99421.56;;;6.47;82.71
56241;BME280;42155;53.096;23.226;2023-10-19T06:08:05;99431.78;;;6.51;82.50
56241;BME280;42155;53.096;23.226;2023-10-19T06:10:06;99429.91;;;6.53;83.13
56241;BME280;42155;53.096;23.226;2023-10-19T06:12:07;99378.34;;;6.25;82.83
56241;BME280;42155;53.096;23.226;2023-10-19T06:14:07;99426.59;;;6.62;82.17
56241;BME280;42155;53.096;23.226;2023-10-19T06:16:07;99378.72;;;6.32;82.67
56241;BME280;42155;53.096;23.226;2023-10-19T06:18:08;99435.97;;;6.67;82.74
56241;BME280;42155;53.096;23.226;2023-10-19T06:20:09;99438.47;;;6.68;82.27
56241;BME280;42155;53.096;23.226;2023-10-19T06:22:10;99442.41;;;6.62;82.10
56241;BME280;42155;53.096;23.226;2023-10-19T06:24:10;99437.66;;;6.68;82.46
56241;BME280;42155;53.096;23.226;2023-10-19T06:26:11;99445.44;;;6.69;82.32
56241;BME280;42155;53.096;23.226;2023-10-19T06:28:11;99440.28;;;6.68;82.42
56241;BME280;42155;53.096;23.226;2023-10-19T06:30:12;99426.50;;;6.51;82.25
56241;BME280;42155;53.096;23.226;2023-10-19T06:32:12;99438.53;;;6.55;83.16
56241;BME280;42155;53.096;23.226;2023-10-19T06:34:13;99434.84;;;6.58;83.33
56241;BME280;42155;53.096;23.226;2023-10-19T06:36:13;99430.91;;;6.63;82.66
56241;BME280;42155;53.096;23.226;2023-10-19T06:38:13;99415.41;;;6.59;82.80
56241;BME280;42155;53.096;23.226;2023-10-19T06:40:15;99429.63;;;6.69;82.66
56241;BME280;42155;53.096;23.226;2023-10-19T06:42:15;99439.91;;;6.61;82.98
56241;BME280;42155;53.096;23.226;2023-10-19T06:44:16;99431.56;;;6.54;83.11
56241;BME280;42155;53.096;23.226;2023-10-19T06:46:16;99434.97;;;6.56;83.27
56241;BME280;42155;53.096;23.226;2023-10-19T06:48:16;99439.56;;;6.66;82.84
56241;BME280;42155;53.096;23.226;2023-10-19T06:50:21;99434.28;;;6.66;82.58
56241;BME280;42155;53.096;23.226;2023-10-19T06:52:22;99438.59;;;6.67;83.13
56241;BME280;42155;53.096;23.226;2023-10-19T06:54:22;99438.47;;;6.68;82.40
56241;BME280;42155;53.096;23.226;2023-10-19T06:56:22;99424.59;;;6.66;82.72
56241;BME280;42155;53.096;23.226;2023-10-19T06:58:23;99431.66;;;6.66;82.94
56241;BME280;42155;53.096;23.226;2023-10-19T07:00:24;99429.69;;;6.56;83.08
56241;BME280;42155;53.096;23.226;2023-10-19T07:02:25;99428.47;;;6.60;82.61
56241;BME280;42155;53.096;23.226;2023-10-19T07:04:25;99417.69;;;6.52;82.64
56241;BME280;42155;53.096;23.226;2023-10-19T07:06:25;99435.72;;;6.70;83.11
56241;BME280;42155;53.096;23.226;2023-10-19T07:08:28;99426.88;;;6.71;82.75
56241;BME280;42155;53.096;23.226;2023-10-19T07:10:29;99424.59;;;6.66;83.18
56241;BME280;42155;53.096;23.226;2023-10-19T07:12:29;99417.19;;;6.71;82.78
56241;BME280;42155;53.096;23.226;2023-10-19T07:14:32;99421.03;;;6.78;82.64
56241;BME280;42155;53.096;23.226;2023-10-19T07:16:32;99393.09;;;6.76;82.26
56241;BME280;42155;53.096;23.226;2023-10-19T07:18:33;99416.41;;;6.93;82.80
56241;BME280;42155;53.096;23.226;2023-10-19T07:20:34;99406.59;;;6.95;82.66
56241;BME280;42155;53.096;23.226;2023-10-19T07:22:35;99398.97;;;7.03;81.88
56241;BME280;42155;53.096;23.226;2023-10-19T07:24:35;99404.50;;;7.11;81.93
56241;BME280;42155;53.096;23.226;2023-10-19T07:29:14;99399.69;;;7.05;82.35
56241;BME280;42155;53.096;23.226;2023-10-19T07:31:14;99399.34;;;7.10;82.18
56241;BME280;42155;53.096;23.226;2023-10-19T07:33:17;99402.59;;;7.13;81.89
56241;BME280;42155;53.096;23.226;2023-10-19T07:35:18;99409.31;;;7.18;82.04
56241;BME280;42155;53.096;23.226;2023-10-19T07:37:19;99400.94;;;7.24;81.66
56241;BME280;42155;53.096;23.226;2023-10-19T07:39:19;99401.44;;;7.29;81.30
56241;BME280;42155;53.096;23.226;2023-10-19T07:41:20;99395.44;;;7.27;81.37
56241;BME280;42155;53.096;23.226;2023-10-19T07:43:21;99385.84;;;7.26;81.07
56241;BME280;42155;53.096;23.226;2023-10-19T07:45:25;99398.53;;;7.21;81.64
56241;BME280;42155;53.096;23.226;2023-10-19T07:47:25;99396.50;;;7.24;81.50
56241;BME280;42155;53.096;23.226;2023-10-19T07:49:26;99372.81;;;7.11;81.08
56241;BME280;42155;53.096;23.226;2023-10-19T07:51:26;99395.31;;;7.28;81.21
56241;BME280;42155;53.096;23.226;2023-10-19T07:53:26;99391.34;;;7.34;81.68
56241;BME280;42155;53.096;23.226;2023-10-19T07:55:27;99388.72;;;7.23;81.28
56241;BME280;42155;53.096;23.226;2023-10-19T07:57:28;99385.22;;;7.22;81.11
56241;BME280;42155;53.096;23.226;2023-10-19T07:59:29;99384.13;;;7.25;81.53
56241;BME280;42155;53.096;23.226;2023-10-19T08:01:29;99385.84;;;7.26;81.17
56241;BME280;42155;53.096;23.226;2023-10-19T08:03:32;99390.88;;;7.29;81.58
56241;BME280;42155;53.096;23.226;2023-10-19T08:05:35;99395.09;;;7.31;81.09
56241;BME280;42155;53.096;23.226;2023-10-19T08:07:36;99376.69;;;7.19;81.30
56241;BME280;42155;53.096;23.226;2023-10-19T08:09:36;99393.84;;;7.24;80.56
56241;BME280;42155;53.096;23.226;2023-10-19T08:11:37;99367.81;;;7.08;80.92
56241;BME280;42155;53.096;23.226;2023-10-19T08:13:38;99387.03;;;7.22;81.23
56241;BME280;42155;53.096;23.226;2023-10-19T08:15:38;99395.19;;;7.30;81.35
56241;BME280;42155;53.096;23.226;2023-10-19T08:17:40;99389.69;;;7.33;80.45
56241;BME280;42155;53.096;23.226;2023-10-19T08:19:41;99396.16;;;7.29;80.54
56241;BME280;42155;53.096;23.226;2023-10-19T08:21:41;99388.72;;;7.23;80.99
56241;BME280;42155;53.096;23.226;2023-10-19T08:26:43;99397.53;;;7.10;81.50
56241;BME280;42155;53.096;23.226;2023-10-19T08:29:19;99388.44;;;7.14;81.50
56241;BME280;42155;53.096;23.226;2023-10-19T08:33:24;99380.09;;;7.32;80.64
56241;BME280;42155;53.096;23.226;2023-10-19T08:35:24;99380.44;;;7.38;80.42
56241;BME280;42155;53.096;23.226;2023-10-19T08:37:25;99372.44;;;7.40;80.93
56241;BME280;42155;53.096;23.226;2023-10-19T08:50:28;99379.16;;;7.44;80.02
56241;BME280;42155;53.096;23.226;2023-10-19T08:52:29;99373.13;;;7.42;80.65
56241;BME280;42155;53.096;23.226;2023-10-19T08:54:30;99365.44;;;7.39;80.36
56241;BME280;42155;53.096;23.226;2023-10-19T08:56:31;99352.72;;;7.33;80.78
56241;BME280;42155;53.096;23.226;2023-10-19T08:58:32;99377.00;;;7.49;80.58
56241;BME280;42155;53.096;23.226;2023-10-19T09:00:46;99366.19;;;7.52;80.73
56241;BME280;42155;53.096;23.226;2023-10-19T09:02:47;99365.13;;;7.55;80.58
56241;BME280;42155;53.096;23.226;2023-10-19T09:04:50;99377.22;;;7.57;80.17
56241;BME280;42155;53.096;23.226;2023-10-19T09:06:53;99373.16;;;7.53;79.97
56241;BME280;42155;53.096;23.226;2023-10-19T09:08:54;99358.25;;;7.41;80.52
56241;BME280;42155;53.096;23.226;2023-10-19T09:10:55;99357.31;;;7.53;80.58
56241;BME280;42155;53.096;23.226;2023-10-19T09:13:03;99365.34;;;7.52;80.07
56241;BME280;42155;53.096;23.226;2023-10-19T09:15:04;99364.88;;;7.47;80.77
56241;BME280;42155;53.096;23.226;2023-10-19T09:17:04;99347.94;;;7.38;80.39
56241;BME280;42155;53.096;23.226;2023-10-19T09:19:05;99352.03;;;7.53;80.45
56241;BME280;42155;53.096;23.226;2023-10-19T09:21:07;99355.16;;;7.58;79.89
56241;BME280;42155;53.096;23.226;2023-10-19T09:23:07;99354.44;;;7.56;79.99
56241;BME280;42155;53.096;23.226;2023-10-19T09:25:08;99351.09;;;7.54;80.30
56241;BME280;42155;53.096;23.226;2023-10-19T09:27:08;99355.63;;;7.52;79.92
56241;BME280;42155;53.096;23.226;2023-10-19T09:29:12;99343.88;;;7.45;80.65
56241;BME280;42155;53.096;23.226;2023-10-19T09:31:18;99324.19;;;7.38;80.83
56241;BME280;42155;53.096;23.226;2023-10-19T09:33:19;99343.88;;;7.45;80.81
56241;BME280;42155;53.096;23.226;2023-10-19T09:35:20;99335.47;;;7.40;80.97
56241;BME280;42155;53.096;23.226;2023-10-19T09:37:20;99340.75;;;7.40;81.27
56241;BME280;42155;53.096;23.226;2023-10-19T09:39:21;99334.84;;;7.48;80.97
56241;BME280;42155;53.096;23.226;2023-10-19T09:41:21;99329.47;;;7.49;81.22
56241;BME280;42155;53.096;23.226;2023-10-19T09:45:27;99327.91;;;7.58;80.61
56241;BME280;42155;53.096;23.226;2023-10-19T09:47:34;99314.22;;;7.53;80.54
56241;BME280;42155;53.096;23.226;2023-10-19T09:49:36;99302.09;;;7.61;80.53
56241;BME280;42155;53.096;23.226;2023-10-19T09:51:37;99290.94;;;7.58;80.16
56241;BME280;42155;53.096;23.226;2023-10-19T09:53:39;99310.50;;;7.66;80.17
56241;BME280;42155;53.096;23.226;2023-10-19T09:55:40;99299.47;;;7.61;79.82
56241;BME280;42155;53.096;23.226;2023-10-19T09:57:53;99297.09;;;7.58;79.86
56241;BME280;42155;53.096;23.226;2023-10-19T10:00:00;99298.13;;;7.67;79.92
56241;BME280;42155;53.096;23.226;2023-10-19T10:04:05;99290.56;;;7.74;80.28
56241;BME280;42155;53.096;23.226;2023-10-19T10:06:06;99279.78;;;7.77;79.97
56241;BME280;42155;53.096;23.226;2023-10-19T10:10:19;99277.25;;;7.75;79.90
56241;BME280;42155;53.096;23.226;2023-10-19T10:12:24;99261.28;;;7.65;79.99
56241;BME280;42155;53.096;23.226;2023-10-19T10:14:25;99277.97;;;7.77;79.81
56241;BME280;42155;53.096;23.226;2023-10-19T10:16:28;99281.91;;;7.72;79.90
56241;BME280;42155;53.096;23.226;2023-10-19T10:18:30;99270.50;;;7.71;80.56
56241;BME280;42155;53.096;23.226;2023-10-19T10:20:31;99261.06;;;7.69;80.26
56241;BME280;42155;53.096;23.226;2023-10-19T10:22:32;99266.81;;;7.74;79.78
56241;BME280;42155;53.096;23.226;2023-10-19T10:24:33;99265.00;;;7.74;79.97
56241;BME280;42155;53.096;23.226;2023-10-19T10:26:57;99265.84;;;7.75;79.78
56241;BME280;42155;53.096;23.226;2023-10-19T10:29:36;99249.00;;;7.87;79.89
56241;BME280;42155;53.096;23.226;2023-10-19T10:31:44;99229.56;;;7.88;79.75
56241;BME280;42155;53.096;23.226;2023-10-19T10:33:53;99237.78;;;8.06;79.50
56241;BME280;42155;53.096;23.226;2023-10-19T10:35:54;99214.25;;;8.03;79.07
56241;BME280;42155;53.096;23.226;2023-10-19T10:37:55;99218.16;;;8.20;78.98
56241;BME280;42155;53.096;23.226;2023-10-19T10:39:59;99161.56;;;7.90;78.54
56241;BME280;42155;53.096;23.226;2023-10-19T10:42:02;99212.13;;;8.29;78.27
56241;BME280;42155;53.096;23.226;2023-10-19T10:44:05;99194.59;;;8.28;78.58
56241;BME280;42155;53.096;23.226;2023-10-19T10:46:10;99197.91;;;8.30;78.71
56241;BME280;42155;53.096;23.226;2023-10-19T10:50:19;99202.31;;;8.20;78.22
56241;BME280;42155;53.096;23.226;2023-10-19T10:54:30;99183.34;;;8.14;78.75
56241;BME280;42155;53.096;23.226;2023-10-19T10:56:31;99177.22;;;8.14;78.85
56241;BME280;42155;53.096;23.226;2023-10-19T10:58:32;99172.41;;;8.19;78.77
56241;BME280;42155;53.096;23.226;2023-10-19T11:00:41;99164.09;;;8.24;78.35
56241;BME280;42155;53.096;23.226;2023-10-19T11:02:43;99172.91;;;8.34;77.89
56241;BME280;42155;53.096;23.226;2023-10-19T11:04:45;99175.22;;;8.27;78.03
56241;BME280;42155;53.096;23.226;2023-10-19T11:06:50;99172.00;;;8.24;78.32
56241;BME280;42155;53.096;23.226;2023-10-19T11:08:51;99168.41;;;8.25;77.85
56241;BME280;42155;53.096;23.226;2023-10-19T11:10:51;99169.81;;;8.29;77.86
56241;BME280;42155;53.096;23.226;2023-10-19T11:13:00;99174.38;;;8.38;77.55